Thunder radar more information blitzortung!


Radar de pluja more information rain snow radar


Visita la nostra xarxa de llocs de meteo:

Template documentation
and downloads

And another site



No particular awareness of the weather is required.    There are no Weather-warnings

Pagina Historial Weather Underground text

Diari Resum Setembre 29, 2017 Unitats:  Mètric    Imperial   Tant
« Previous Dia
SegĂźent Dia »
Diari Setmana Mensual Anual Personalitzada
  Maxima: Minima: Media:
Temperatura: -17.8 °C -9.2 °C -5.7 °C
Punt de rosada: -17.8 °C -10.7 °C -9.6 °C
Humitat: Humidity % 46 % 65 %
Wind Speed: 0 km/h 0 km/h 9.5 km/h
RĂ fegues de vent: 0 km/h - -
Vent:- - SSW
Pression baro: 0 hPa 34533.8 hPa -
Precipitacions: 0 mm    
Historical Graphs
 
 
Dades de taula per Setembre 29, 2017
Temps Temperatura Punt de rosada Pression baro Vent Wind Speed RĂ fegues de vent Humitat Rainfall Rate (Hourly)
-17.8 °C -17.8 °C 0 hPa Calm     Humidity % 0 mm
00:01 -7.9 °C -10 °C 34740.4 hPa NNW 3.1 km/h 3.1 km/h 79 % 0 mm
00:06 -7.9 °C -10 °C 34740.4 hPa Calm     79 % 0 mm
00:11 -8 °C -10.1 °C 34740.4 hPa Calm     79 % 0 mm
03:55 -9 °C -10 °C 34703.1 hPa Calm   5.1 km/h 89 % 0 mm
04:05 -8.7 °C -9.6 °C 34703.1 hPa Calm   2.6 km/h 90 % 0 mm
04:15 -8.3 °C -9.4 °C 34703.1 hPa Calm   2.6 km/h 88 % 0 mm
04:25 -8.1 °C -9.4 °C 34703.1 hPa North 2.6 km/h 2.6 km/h 86 % 0 mm
04:35 -8 °C -9.4 °C 34703.1 hPa NE 2.6 km/h 5.1 km/h 85 % 0 mm
04:45 -7.6 °C -9.2 °C 34703.1 hPa Calm   5.1 km/h 83 % 0 mm
04:55 -7.3 °C -9.2 °C 34703.1 hPa NE 2.6 km/h 2.6 km/h 81 % 0 mm
05:05 -7.2 °C -9.3 °C 34703.1 hPa Calm   5.1 km/h 79 % 0 mm
05:15 -7.2 °C -9.3 °C 34703.1 hPa ENE 5.1 km/h 10.3 km/h 78 % 0 mm
05:25 -7 °C -9.3 °C 34740.4 hPa NE 5.1 km/h 5.1 km/h 77 % 0 mm
10:27 -6.8 °C -9.1 °C 34740.4 hPa NNE 9 km/h 9 km/h 77 % 0 mm
10:28 -6.8 °C -9.1 °C 34740.4 hPa ENE 9.3 km/h 9.3 km/h 77 % 0 mm
10:31 -6.9 °C -9.2 °C 34703.1 hPa NE 9 km/h 9 km/h 77 % 0 mm
10:36 -6.6 °C -8.9 °C 34703.1 hPa NNW 6 km/h 6 km/h 77 % 0 mm
10:41 -6.4 °C -8.8 °C 34703.1 hPa North 11.9 km/h 11.9 km/h 76 % 0 mm
10:46 -6.3 °C -8.9 °C 34703.1 hPa NNW 6.3 km/h 6.3 km/h 75 % 0 mm
10:51 -6.4 °C -9.1 °C 34703.1 hPa NNE 8.5 km/h 8.5 km/h 74 % 0 mm
10:56 -6.3 °C -8.9 °C 34703.1 hPa NE 6 km/h 6 km/h 74 % 0 mm
11:01 -6.2 °C -8.9 °C 34703.1 hPa ENE 6 km/h 6 km/h 73 % 0 mm
11:06 -6 °C -8.8 °C 34703.1 hPa NW 9 km/h 9 km/h 73 % 0 mm
11:11 -6.2 °C -9 °C 34703.1 hPa South 6 km/h 6 km/h 73 % 0 mm
11:16 -5.8 °C -8.8 °C 34703.1 hPa East 6 km/h   72 % 0 mm
11:21 -5.6 °C -8.7 °C 34703.1 hPa SE 6 km/h 6 km/h 71 % 0 mm
11:26 -5.6 °C -8.8 °C 34703.1 hPa SSE 9 km/h   69 % 0 mm
11:31 -5.3 °C -8.7 °C 34703.1 hPa SSE 3.1 km/h   69 % 0 mm
11:36 -5.2 °C -8.7 °C 34703.1 hPa NNE 9 km/h 9 km/h 68 % 0 mm
11:41 -5.4 °C -9 °C 34703.1 hPa ENE 6.8 km/h 6.8 km/h 67 % 0 mm
11:46 -5.2 °C -8.7 °C 34703.1 hPa NNE 6 km/h 6 km/h 68 % 0 mm
11:51 -5.1 °C -8.6 °C 34703.1 hPa WNW 9 km/h 9 km/h 68 % 0 mm
11:56 -5.3 °C -8.8 °C 34703.1 hPa West 9 km/h 9 km/h 68 % 0 mm
12:01 -5.1 °C -8.7 °C 34669.3 hPa NNW 6 km/h 6 km/h 67 % 0 mm
12:06 -4.8 °C -8.6 °C 34669.3 hPa West 9 km/h 9 km/h 66 % 0 mm
12:11 -4.5 °C -8.4 °C 34669.3 hPa SW 8.5 km/h 8.5 km/h 65 % 0 mm
12:16 -4.6 °C -8.6 °C 34669.3 hPa West 14.5 km/h 14.5 km/h 64 % 0 mm
12:21 -4.4 °C -8.6 °C 34669.3 hPa SSW 6.3 km/h 6.3 km/h 63 % 0 mm
12:26 -4.4 °C -8.7 °C 34669.3 hPa SSW 15 km/h 15 km/h 62 % 0 mm
12:31 -4.6 °C -8.8 °C 34669.3 hPa SW 11.9 km/h 11.9 km/h 62 % 0 mm
12:36 -4.6 °C -9.1 °C 34669.3 hPa ESE 11.9 km/h 11.9 km/h 60 % 0 mm
12:41 -4.4 °C -9.1 °C 34669.3 hPa West 6 km/h 6 km/h 59 % 0 mm
12:46 -4.2 °C -9.2 °C 34669.3 hPa SE 11.9 km/h 11.9 km/h 57 % 0 mm
12:51 -4.1 °C -9 °C 34669.3 hPa SSW 15 km/h 15 km/h 58 % 0 mm
12:56 -4.2 °C -9.3 °C 34669.3 hPa SW 15 km/h 15 km/h 57 % 0 mm
13:01 -4.2 °C -9.3 °C 34669.3 hPa NW 9 km/h 9 km/h 56 % 0 mm
13:06 -4.3 °C -9.6 °C 34669.3 hPa ESE 9 km/h 9 km/h 55 % 0 mm
13:11 -3.9 °C -9.3 °C 34669.3 hPa SW 6 km/h 6 km/h 55 % 0 mm
13:16 -3.6 °C -9.3 °C 34635.4 hPa SE 8 km/h 8 km/h 53 % 0 mm
13:21 -3.7 °C -9.4 °C 34635.4 hPa ESE 9 km/h 9 km/h 53 % 0 mm
13:26 -3.6 °C -9.2 °C 34635.4 hPa SSW 15 km/h 15 km/h 54 % 0 mm
13:31 -3.3 °C -9.2 °C 34635.4 hPa ESE 9 km/h 9 km/h 52 % 0 mm
13:36 -3.3 °C -9.2 °C 34635.4 hPa WSW 15 km/h 15 km/h 52 % 0 mm
13:41 -3.2 °C -9.5 °C 34635.4 hPa SW 9 km/h 9 km/h 50 % 0 mm
13:46 -3.4 °C -9.6 °C 34635.4 hPa SSE 9 km/h 9 km/h 50 % 0 mm
13:51 -3.5 °C -9.9 °C 34635.4 hPa ESE 6.3 km/h 6.3 km/h 49 % 0 mm
13:56 -3.1 °C -9.6 °C 34635.4 hPa WSW 9.8 km/h 9.8 km/h 49 % 0 mm
14:01 -3.2 °C -9.5 °C 34635.4 hPa NNE 9 km/h 9 km/h 50 % 0 mm
14:06 -3.2 °C -9.5 °C 34635.4 hPa South 11.1 km/h 11.1 km/h 50 % 0 mm
14:11 -2.9 °C -9.2 °C 34635.4 hPa SW 17.9 km/h 17.9 km/h 50 % 0 mm
14:16 -2.8 °C -9.4 °C 34601.5 hPa SW 9 km/h 9.8 km/h 48 % 0 mm
14:21 -2.8 °C -9.8 °C 34601.5 hPa SSE 9 km/h 9.3 km/h 46 % 0 mm
14:26 -2.8 °C -9.8 °C 34601.5 hPa East 11.1 km/h 11.1 km/h 46 % 0 mm
14:31 -3.1 °C -9.9 °C 34635.4 hPa ESE 20.9 km/h 20.9 km/h 47 % 0 mm
14:36 -3.3 °C -9.7 °C 34635.4 hPa SSE 11.9 km/h 11.9 km/h 49 % 0 mm
14:41 -3.5 °C -9.6 °C 34635.4 hPa ESE 15 km/h 15 km/h 51 % 0 mm
14:46 -3.4 °C -9.5 °C 34601.5 hPa ESE 20.9 km/h 20.9 km/h 51 % 0 mm
14:51 -3.8 °C -9.8 °C 34601.5 hPa ENE 15 km/h 15 km/h 51 % 0 mm
14:56 -3.9 °C -9.9 °C 34601.5 hPa SE 16.6 km/h 16.6 km/h 51 % 0 mm
15:01 -3.8 °C -9.7 °C 34601.5 hPa East 20.9 km/h 20.9 km/h 52 % 0 mm
15:06 -3.9 °C -9.6 °C 34601.5 hPa ENE 6.8 km/h 6.8 km/h 53 % 0 mm
15:11 -4.1 °C -9.7 °C 34601.5 hPa ENE 11.9 km/h 11.9 km/h 53 % 0 mm
15:16 -3.9 °C -9.8 °C 34601.5 hPa ENE 15 km/h 15 km/h 52 % 0 mm
15:21 -3.8 °C -9.5 °C 34601.5 hPa ESE 15 km/h 15 km/h 53 % 0 mm
15:26 -4.1 °C -9.6 °C 34601.5 hPa ESE 15 km/h 15 km/h 54 % 0 mm
15:31 -4 °C -9.6 °C 34601.5 hPa NE 15.3 km/h 15.3 km/h 54 % 0 mm
15:36 -4 °C -9.6 °C 34601.5 hPa ESE 15 km/h 15 km/h 54 % 0 mm
15:37 -4 °C -9.6 °C 34601.5 hPa ESE 16.6 km/h 16.6 km/h 54 % 0 mm
15:42 -3.9 °C -9.6 °C 34601.5 hPa ESE 17.9 km/h 17.9 km/h 53 % 0 mm
15:47 -3.6 °C -9.2 °C 34601.5 hPa SSW 17.9 km/h 17.9 km/h 54 % 0 mm
15:52 -3.6 °C -9.3 °C 34601.5 hPa ENE 11.9 km/h 11.9 km/h 53 % 0 mm
15:57 -3.6 °C -9.1 °C 34601.5 hPa SW 11.9 km/h 11.9 km/h 54 % 0 mm
15:58 -3.4 °C -9 °C 34601.5 hPa SE 14 km/h 14 km/h 54 % 0 mm
16:03 -3.7 °C -9.4 °C 34601.5 hPa NNE 15 km/h 15 km/h 53 % 0 mm
16:08 -3.4 °C -9.1 °C 34601.5 hPa SSE 11.9 km/h 11.9 km/h 53 % 0 mm
16:13 -3.1 °C -9 °C 34601.5 hPa South 9 km/h 9 km/h 52 % 0 mm
16:18 -3.1 °C -9.1 °C 34567.7 hPa SW 11.9 km/h 11.9 km/h 51 % 0 mm
16:23 -2.8 °C -8.9 °C 34567.7 hPa SW 19.2 km/h 19.2 km/h 51 % 0 mm
16:28 -2.7 °C -9 °C 34567.7 hPa SSW 16.6 km/h 16.6 km/h 50 % 0 mm
16:33 -2.7 °C -9.1 °C 34601.5 hPa SW 15 km/h 15 km/h 49 % 0 mm
16:38 -2.9 °C -9.2 °C 34601.5 hPa SSW 20.9 km/h 20.9 km/h 50 % 0 mm
16:43 -2.8 °C -9.1 °C 34601.5 hPa SW 16.1 km/h 16.1 km/h 50 % 0 mm
16:48 -2.9 °C -9.3 °C 34567.7 hPa SW 20.9 km/h 20.9 km/h 49 % 0 mm
16:53 -2.9 °C -9.3 °C 34567.7 hPa SSW 15 km/h 15 km/h 49 % 0 mm
16:58 -2.9 °C -9.3 °C 34567.7 hPa SSW 17.9 km/h 17.9 km/h 49 % 0 mm
17:03 -2.9 °C -9.3 °C 34567.7 hPa SW 23.8 km/h 23.8 km/h 49 % 0 mm
17:08 -2.9 °C -9.4 °C 34567.7 hPa WSW 17.9 km/h 17.9 km/h 49 % 0 mm
17:13 -2.9 °C -9.3 °C 34567.7 hPa West 16.6 km/h 16.6 km/h 49 % 0 mm
17:18 -3.1 °C -9.6 °C 34533.8 hPa WSW 15 km/h 15 km/h 49 % 0 mm
17:23 -3.2 °C -9.6 °C 34533.8 hPa SW 15 km/h 15 km/h 49 % 0 mm
17:28 -3 °C -9.3 °C 34533.8 hPa SW 11.1 km/h 11.1 km/h 50 % 0 mm
17:33 -3.2 °C -9.5 °C 34533.8 hPa South 15 km/h 15 km/h 50 % 0 mm
17:38 -3.3 °C -9.5 °C 34533.8 hPa WSW 11.9 km/h 14 km/h 50 % 0 mm
17:43 -3.6 °C -9.8 °C 34533.8 hPa SW 17.9 km/h 17.9 km/h 50 % 0 mm
17:48 -3.6 °C -9.8 °C 34533.8 hPa SW 12.2 km/h 12.2 km/h 50 % 0 mm
17:53 -3.7 °C -9.9 °C 34533.8 hPa SW 17.9 km/h 17.9 km/h 50 % 0 mm
17:58 -3.7 °C -9.8 °C 34533.8 hPa SW 12.7 km/h 12.7 km/h 51 % 0 mm
18:03 -3.8 °C -9.8 °C 34533.8 hPa WSW 17.9 km/h 17.9 km/h 51 % 0 mm
18:13 -4.1 °C -9.9 °C 34533.8 hPa WSW 15 km/h 15 km/h 52 % 0 mm
18:18 -4.1 °C -9.8 °C 34533.8 hPa WSW 11.9 km/h 11.9 km/h 53 % 0 mm
18:23 -4.1 °C -9.8 °C 34533.8 hPa SW 11.9 km/h 11.9 km/h 53 % 0 mm
18:28 -4.2 °C -9.7 °C 34533.8 hPa South 16.1 km/h 16.1 km/h 54 % 0 mm
18:29 -4.2 °C -9.7 °C 34533.8 hPa SSW 15 km/h 15 km/h 54 % 0 mm
18:34 -4.4 °C -9.9 °C 34533.8 hPa West 23.8 km/h 23.8 km/h 54 % 0 mm
18:39 -4.5 °C -9.8 °C 34533.8 hPa SW 11.9 km/h 11.9 km/h 55 % 0 mm
18:44 -4.7 °C -9.8 °C 34533.8 hPa SSW 23.8 km/h 23.8 km/h 56 % 0 mm
18:49 -4.8 °C -9.9 °C 34533.8 hPa SSW 11.9 km/h 11.9 km/h 56 % 0 mm
18:54 -4.8 °C -9.8 °C 34533.8 hPa WSW 15 km/h 15 km/h 57 % 0 mm
18:59 -5 °C -10 °C 34533.8 hPa SW 23.8 km/h 23.8 km/h 57 % 0 mm
19:04 -5.2 °C -10 °C 34533.8 hPa SW 15 km/h 15 km/h 58 % 0 mm
19:09 -5.3 °C -9.9 °C 34533.8 hPa SSW 11.9 km/h 11.9 km/h 59 % 0 mm
19:14 -5.3 °C -10 °C 34533.8 hPa South 20.9 km/h 20.9 km/h 59 % 0 mm
19:19 -5.4 °C -9.9 °C 34533.8 hPa SSW 11.9 km/h 11.9 km/h 60 % 0 mm
19:24 -5.6 °C -10.1 °C 34533.8 hPa WSW 15 km/h 15 km/h 60 % 0 mm
19:26 -5.6 °C -9.9 °C 34533.8 hPa SW 17.9 km/h 17.9 km/h 61 % 0 mm
19:30 -7.7 °C -9.8 °C 34635.4 hPa WSW 2.6 km/h 2.6 km/h 79 % 0 mm
19:31 -5.7 °C -9.9 °C 34533.8 hPa WSW 20.9 km/h 20.9 km/h 62 % 0 mm
19:36 -5.8 °C -10 °C 34533.8 hPa SW 15 km/h 15 km/h 62 % 0 mm
19:40 -7.8 °C -9.8 °C 34635.4 hPa Calm   2.6 km/h 79 % 0 mm
19:41 -5.8 °C -9.9 °C 34533.8 hPa SW 15 km/h 15 km/h 63 % 0 mm
19:46 -5.9 °C -10.1 °C 34567.7 hPa SW 15 km/h 15 km/h 63 % 0 mm
19:50 -7.8 °C -9.8 °C 34635.4 hPa WNW 2.6 km/h 5.1 km/h 79 % 0 mm
19:51 -6 °C -9.9 °C 34567.7 hPa SW 20.9 km/h 20.9 km/h 64 % 0 mm
19:56 -6.1 °C -9.9 °C 34567.7 hPa WSW 11.9 km/h 11.9 km/h 65 % 0 mm
20:00 -7.9 °C -9.9 °C 34635.4 hPa West 2.6 km/h 5.1 km/h 79 % 0 mm
20:01 -6.2 °C -9.9 °C 34567.7 hPa SW 15.6 km/h 15.6 km/h 65 % 0 mm
20:06 -6.2 °C -9.9 °C 34567.7 hPa SW 15 km/h 15 km/h 66 % 0 mm
20:10 -8 °C -9.9 °C 34601.5 hPa WSW 2.6 km/h 5.1 km/h 80 % 0 mm
20:11 -6.3 °C -9.9 °C 34567.7 hPa SW 15.6 km/h 15.6 km/h 66 % 0 mm
20:16 -6.3 °C -9.8 °C 34601.5 hPa SW 17.9 km/h 17.9 km/h 67 % 0 mm
20:20 -8 °C -9.9 °C 34601.5 hPa West 2.6 km/h 5.1 km/h 80 % 0 mm
20:21 -6.4 °C -9.9 °C 34601.5 hPa SW 15 km/h 15 km/h 67 % 0 mm
20:26 -6.4 °C -9.8 °C 34601.5 hPa WSW 16.1 km/h 16.1 km/h 68 % 0 mm
20:30 -8.1 °C -10 °C 34601.5 hPa West 2.6 km/h 5.1 km/h 80 % 0 mm
20:31 -6.5 °C -9.8 °C 34567.7 hPa WSW 11.9 km/h 11.9 km/h 69 % 0 mm
20:36 -6.6 °C -9.8 °C 34567.7 hPa SW 15 km/h 15 km/h 69 % 0 mm
20:40 -8.1 °C -9.9 °C 34635.4 hPa WSW 2.6 km/h 5.1 km/h 81 % 0 mm
20:41 -6.6 °C -9.9 °C 34567.7 hPa South 11.9 km/h 11.9 km/h 69 % 0 mm
20:42 -6.6 °C -9.9 °C 34567.7 hPa SW 11.9 km/h 11.9 km/h 69 % 0 mm
20:47 -6.7 °C -9.8 °C 34567.7 hPa SW 6.8 km/h 6.8 km/h 70 % 0 mm
20:50 -8.1 °C -9.9 °C 34635.4 hPa Calm   5.1 km/h 81 % 0 mm
20:52 -6.7 °C -9.8 °C 34567.7 hPa WSW 12.2 km/h 12.2 km/h 70 % 0 mm
20:57 -6.7 °C -9.7 °C 34567.7 hPa West 10.3 km/h 10.3 km/h 71 % 0 mm
21:00 -8.1 °C -9.8 °C 34635.4 hPa Calm   5.1 km/h 82 % 0 mm
21:02 -6.8 °C -9.8 °C 34601.5 hPa WSW 15 km/h 15 km/h 71 % 0 mm
21:07 -6.8 °C -9.7 °C 34601.5 hPa SW 9 km/h 9 km/h 72 % 0 mm
21:10 -8.2 °C -9.9 °C 34601.5 hPa Calm     82 % 0 mm
21:12 -6.8 °C -9.7 °C 34601.5 hPa SW 6.3 km/h 6.3 km/h 72 % 0 mm
21:17 -6.9 °C -9.8 °C 34601.5 hPa SSW 9 km/h 9 km/h 72 % 0 mm
21:20 -8.4 °C -10 °C 34601.5 hPa NW 2.6 km/h 5.1 km/h 83 % 0 mm
21:22 -6.9 °C -9.7 °C 34601.5 hPa SW 6 km/h 6 km/h 73 % 0 mm
21:27 -6.9 °C -9.7 °C 34601.5 hPa SW 9 km/h 9 km/h 73 % 0 mm
21:30 -8.5 °C -10.1 °C 34601.5 hPa SSW 2.6 km/h 2.6 km/h 83 % 0 mm
21:32 -7 °C -9.8 °C 34601.5 hPa West 9 km/h 9 km/h 73 % 0 mm
21:37 -7 °C -9.8 °C 34601.5 hPa SW 3.7 km/h 3.7 km/h 73 % 0 mm
21:40 -8.6 °C -10.2 °C 34601.5 hPa Calm   5.1 km/h 83 % 0 mm
21:42 -7.1 °C -9.8 °C 34601.5 hPa West 5.1 km/h 5.1 km/h 73 % 0 mm
21:47 -7.1 °C -9.7 °C 34635.4 hPa SW 5.1 km/h 5.1 km/h 74 % 0 mm
21:50 -8.5 °C -10.1 °C 34601.5 hPa West 2.6 km/h 5.1 km/h 83 % 0 mm
21:52 -7.1 °C -9.7 °C 34635.4 hPa WSW 9 km/h 9 km/h 74 % 0 mm
21:57 -7.1 °C -9.8 °C 34635.4 hPa SW 6 km/h 6 km/h 74 % 0 mm
22:00 -8.6 °C -10.2 °C 34601.5 hPa Calm   2.6 km/h 83 % 0 mm
22:02 -7.1 °C -9.8 °C 34601.5 hPa WSW 6 km/h 6 km/h 74 % 0 mm
22:07 -7.2 °C -9.7 °C 34601.5 hPa SW 3.1 km/h 3.1 km/h 75 % 0 mm
22:12 -7.2 °C -9.7 °C 34601.5 hPa SW 3.7 km/h 3.7 km/h 75 % 0 mm
22:17 -7.2 °C -9.8 °C 34635.4 hPa SW 6 km/h 6 km/h 75 % 0 mm
22:20 -8.6 °C -10.1 °C 34601.5 hPa Calm     84 % 0 mm
22:22 -7.2 °C -9.8 °C 34635.4 hPa WSW 3.1 km/h 3.1 km/h 75 % 0 mm
22:27 -7.2 °C -9.8 °C 34635.4 hPa West 6 km/h 6 km/h 75 % 0 mm
22:30 -8.7 °C -10.2 °C 34601.5 hPa Calm   2.6 km/h 84 % 0 mm
22:32 -7.2 °C -9.8 °C 34635.4 hPa WSW 6 km/h 6 km/h 75 % 0 mm
22:37 -7.2 °C -9.8 °C 34635.4 hPa WSW 4.2 km/h 4.2 km/h 75 % 0 mm
22:40 -8.9 °C -10.4 °C 34601.5 hPa Calm     84 % 0 mm
22:42 -7.2 °C -9.6 °C 34635.4 hPa WSW 3.7 km/h 3.7 km/h 76 % 0 mm
22:47 -7.3 °C -9.6 °C 34635.4 hPa SW 3.1 km/h   77 % 0 mm
22:52 -7.3 °C -9.6 °C 34635.4 hPa SW 6 km/h 6 km/h 77 % 0 mm
22:57 -7.4 °C -9.7 °C 34635.4 hPa SW 4.2 km/h 4.2 km/h 77 % 0 mm
23:00 -9.1 °C -10.6 °C 34567.7 hPa Calm   5.1 km/h 84 % 0 mm
23:02 -7.5 °C -9.8 °C 34635.4 hPa SW 6 km/h 6 km/h 77 % 0 mm
23:07 -7.5 °C -9.8 °C 34635.4 hPa SW 3.1 km/h 3.1 km/h 77 % 0 mm
23:10 -9.2 °C -10.7 °C 34601.5 hPa Calm     84 % 0 mm
23:12 -7.6 °C -9.7 °C 34635.4 hPa Calm     78 % 0 mm
23:17 -7.6 °C -9.7 °C 34635.4 hPa Calm     78 % 0 mm
23:20 -9.2 °C -10.6 °C 34601.5 hPa Calm     85 % 0 mm
23:22 -7.6 °C -9.8 °C 34635.4 hPa SW 3.1 km/h 3.1 km/h 78 % 0 mm
23:27 -7.6 °C -9.8 °C 34635.4 hPa SW 4.2 km/h   78 % 0 mm
23:30 -9.2 °C -10.6 °C 34601.5 hPa Calm     85 % 0 mm
23:32 -7.7 °C -9.8 °C 34635.4 hPa SW 3.1 km/h 3.1 km/h 78 % 0 mm
23:37 -7.7 °C -9.8 °C 34635.4 hPa Calm     78 % 0 mm
23:40 -9.1 °C -10.4 °C 34601.5 hPa Calm     86 % 0 mm
23:42 -7.7 °C -9.8 °C 34635.4 hPa West 6 km/h 6 km/h 78 % 0 mm
23:47 -7.7 °C -9.8 °C 34601.5 hPa West 6 km/h 6 km/h 78 % 0 mm
23:52 -7.7 °C -9.8 °C 34601.5 hPa West 6 km/h 6 km/h 78 % 0 mm
23:57 -7.7 °C -9.8 °C 34601.5 hPa West 6 km/h 6 km/h 78 % 0 mm
Meteo Sesrovires
Elogis d' Weather Underground - 2 mb

Guio original per  Jim McMurry - jmcmurry@mwt.net Adaptat per a la plantilla per  Wim van der Kuil - Leuven-Template.eu

Trobareu la nostra informacio del temps tambe a:

Weather Underground

AWEKAS